sensor_id;sensor_type;location;lat;lon;timestamp;pressure;altitude;pressure_sealevel;temperature;humidity
76331;BME280;65148;51.912;15.570;2022-11-15T00:09:35;101621.38;;;3.36;93.17
76331;BME280;65148;51.912;15.570;2022-11-15T00:24:36;101607.37;;;3.27;92.18
76331;BME280;65148;51.912;15.570;2022-11-15T00:39:37;101602.85;;;3.21;92.68
76331;BME280;65148;51.912;15.570;2022-11-15T00:54:38;101595.29;;;3.05;91.54
76331;BME280;65148;51.912;15.570;2022-11-15T01:10:05;101591.50;;;2.81;91.62
76331;BME280;65148;51.912;15.570;2022-11-15T01:25:07;101577.91;;;2.69;91.39
76331;BME280;65148;51.912;15.570;2022-11-15T01:40:08;101560.34;;;2.67;91.65
76331;BME280;65148;51.912;15.570;2022-11-15T01:55:13;101545.29;;;2.59;91.34
76331;BME280;65148;51.912;15.570;2022-11-15T02:10:35;101522.40;;;2.43;91.60
76331;BME280;65148;51.912;15.570;2022-11-15T02:40:59;101498.17;;;2.50;91.78
76331;BME280;65148;51.912;15.570;2022-11-15T02:56:18;101489.95;;;2.38;92.60
76331;BME280;65148;51.912;15.570;2022-11-15T03:11:21;101482.30;;;2.42;92.26
76331;BME280;65148;51.912;15.570;2022-11-15T03:26:23;101475.07;;;2.42;92.02
76331;BME280;65148;51.912;15.570;2022-11-15T03:41:33;101464.10;;;2.44;91.85
76331;BME280;65148;51.912;15.570;2022-11-15T03:56:49;101457.30;;;2.41;92.74
76331;BME280;65148;51.912;15.570;2022-11-15T04:11:50;101455.17;;;2.50;92.05
76331;BME280;65148;51.912;15.570;2022-11-15T04:26:51;101440.54;;;2.46;92.35
76331;BME280;65148;51.912;15.570;2022-11-15T04:41:52;101431.67;;;2.39;92.40
76331;BME280;65148;51.912;15.570;2022-11-15T04:57:18;101427.59;;;2.30;92.34
76331;BME280;65148;51.912;15.570;2022-11-15T05:12:19;101412.48;;;2.35;92.03
76331;BME280;65148;51.912;15.570;2022-11-15T05:27:20;101419.73;;;2.35;92.51
76331;BME280;65148;51.912;15.570;2022-11-15T05:42:21;101417.26;;;2.33;92.07
76331;BME280;65148;51.912;15.570;2022-11-15T05:57:47;101418.55;;;2.24;92.31
76331;BME280;65148;51.912;15.570;2022-11-15T06:12:57;101398.70;;;2.25;92.38
76331;BME280;65148;51.912;15.570;2022-11-15T06:27:59;101405.68;;;2.33;92.30
76331;BME280;65148;51.912;15.570;2022-11-15T06:43:00;101428.05;;;2.27;92.11
76331;BME280;65148;51.912;15.570;2022-11-15T06:58:16;101431.10;;;2.30;92.95
76331;BME280;65148;51.912;15.570;2022-11-15T07:13:18;101428.22;;;2.63;93.89
76331;BME280;65148;51.912;15.570;2022-11-15T07:28:19;101423.71;;;3.13;95.07
76331;BME280;65148;51.912;15.570;2022-11-15T07:43:20;101416.03;;;3.90;93.88
76331;BME280;65148;51.912;15.570;2022-11-15T07:58:46;101406.77;;;4.34;96.54
76331;BME280;65148;51.912;15.570;2022-11-15T08:13:48;101397.80;;;5.28;97.25
76331;BME280;65148;51.912;15.570;2022-11-15T08:28:49;101381.18;;;6.40;96.96
76331;BME280;65148;51.912;15.570;2022-11-15T08:43:50;101377.08;;;7.38;97.64
76331;BME280;65148;51.912;15.570;2022-11-15T08:59:15;101366.76;;;8.22;99.33
76331;BME280;65148;51.912;15.570;2022-11-15T09:14:16;101373.55;;;9.15;93.86
76331;BME280;65148;51.912;15.570;2022-11-15T09:29:18;101368.55;;;10.01;89.56
76331;BME280;65148;51.912;15.570;2022-11-15T10:15:06;101327.80;;;11.23;82.83
76331;BME280;65148;51.912;15.570;2022-11-15T10:30:14;101317.62;;;11.49;83.83
76331;BME280;65148;51.912;15.570;2022-11-15T10:45:30;101290.14;;;11.99;81.87
76331;BME280;65148;51.912;15.570;2022-11-15T11:00:37;101272.95;;;12.67;78.64
76331;BME280;65148;51.912;15.570;2022-11-15T11:15:46;101252.83;;;13.58;77.73
76331;BME280;65148;51.912;15.570;2022-11-15T12:01:39;101203.16;;;17.88;60.17
76331;BME280;65148;51.912;15.570;2022-11-15T12:16:55;101182.08;;;17.75;60.61
76331;BME280;65148;51.912;15.570;2022-11-15T12:31:56;101180.38;;;17.22;62.42
76331;BME280;65148;51.912;15.570;2022-11-15T12:47:04;101160.21;;;16.56;63.72
76331;BME280;65148;51.912;15.570;2022-11-15T13:33:37;101133.69;;;14.90;70.67
76331;BME280;65148;51.912;15.570;2022-11-15T13:48:40;101124.87;;;14.80;71.11
76331;BME280;65148;51.912;15.570;2022-11-15T14:34:27;101100.98;;;13.23;77.40
76331;BME280;65148;51.912;15.570;2022-11-15T14:49:28;101091.73;;;12.76;78.67
76331;BME280;65148;51.912;15.570;2022-11-15T15:04:54;101083.08;;;11.93;81.62
76331;BME280;65148;51.912;15.570;2022-11-15T15:19:55;101075.24;;;11.47;82.31
76331;BME280;65148;51.912;15.570;2022-11-15T15:34:56;101063.85;;;11.01;82.83
76331;BME280;65148;51.912;15.570;2022-11-15T15:49:57;101054.03;;;10.41;83.83
76331;BME280;65148;51.912;15.570;2022-11-15T16:05:19;101058.50;;;9.81;84.86
76331;BME280;65148;51.912;15.570;2022-11-15T16:20:31;101054.41;;;9.43;85.95
76331;BME280;65148;51.912;15.570;2022-11-15T16:35:32;101048.65;;;8.99;85.60
76331;BME280;65148;51.912;15.570;2022-11-15T16:50:34;101045.30;;;8.61;87.20
76331;BME280;65148;51.912;15.570;2022-11-15T17:05:57;101034.23;;;8.21;87.74
76331;BME280;65148;51.912;15.570;2022-11-15T17:21:06;101033.77;;;7.92;88.15
76331;BME280;65148;51.912;15.570;2022-11-15T17:36:13;101032.62;;;7.78;89.15
76331;BME280;65148;51.912;15.570;2022-11-15T17:51:40;101034.82;;;7.49;92.75
76331;BME280;65148;51.912;15.570;2022-11-15T18:06:41;101031.30;;;7.85;93.93
76331;BME280;65148;51.912;15.570;2022-11-15T18:21:44;101007.02;;;8.05;95.45
76331;BME280;65148;51.912;15.570;2022-11-15T18:37:23;100997.83;;;8.12;95.18
76331;BME280;65148;51.912;15.570;2022-11-15T18:52:24;100994.49;;;7.94;95.71
76331;BME280;65148;51.912;15.570;2022-11-15T19:07:25;100998.13;;;8.15;94.51
76331;BME280;65148;51.912;15.570;2022-11-15T19:22:26;100996.23;;;8.16;94.43
76331;BME280;65148;51.912;15.570;2022-11-15T19:37:53;100974.18;;;7.97;94.82
76331;BME280;65148;51.912;15.570;2022-11-15T19:52:54;100969.02;;;7.95;95.66
76331;BME280;65148;51.912;15.570;2022-11-15T20:07:55;100955.17;;;7.92;94.80
76331;BME280;65148;51.912;15.570;2022-11-15T20:22:55;100936.70;;;7.79;94.29
76331;BME280;65148;51.912;15.570;2022-11-15T20:38:22;100929.92;;;7.39;94.35
76331;BME280;65148;51.912;15.570;2022-11-15T20:53:23;100916.84;;;7.26;93.98
76331;BME280;65148;51.912;15.570;2022-11-15T21:08:24;100929.20;;;7.12;94.45
76331;BME280;65148;51.912;15.570;2022-11-15T21:23:25;100916.83;;;6.89;96.11
76331;BME280;65148;51.912;15.570;2022-11-15T21:38:51;100915.11;;;6.78;96.78
76331;BME280;65148;51.912;15.570;2022-11-15T21:53:54;100918.87;;;6.50;98.28
76331;BME280;65148;51.912;15.570;2022-11-15T22:08:56;100922.39;;;6.23;99.39
76331;BME280;65148;51.912;15.570;2022-11-15T22:23:57;100911.70;;;6.34;98.00
76331;BME280;65148;51.912;15.570;2022-11-15T22:39:20;100903.61;;;6.12;98.67
76331;BME280;65148;51.912;15.570;2022-11-15T22:54:21;100901.02;;;6.22;98.99
76331;BME280;65148;51.912;15.570;2022-11-15T23:09:22;100882.24;;;6.10;99.70
76331;BME280;65148;51.912;15.570;2022-11-15T23:24:24;100860.68;;;6.15;99.69
76331;BME280;65148;51.912;15.570;2022-11-15T23:39:48;100894.32;;;6.03;100.00
76331;BME280;65148;51.912;15.570;2022-11-15T23:54:49;100873.38;;;6.15;100.00
